createdAt,value
2022-08-11T00:06:10.141Z,16.34
2022-08-11T00:08:38.588Z,16.27
2022-08-11T00:11:08.579Z,16.23
2022-08-11T00:13:38.211Z,16.14
2022-08-11T00:16:13.494Z,16.08
2022-08-11T00:18:43.546Z,16.10
2022-08-11T00:21:13.464Z,16.11
2022-08-11T00:28:48.108Z,16.15
2022-08-11T00:31:24.515Z,16.15
2022-08-11T00:33:52.853Z,16.20
2022-08-11T00:36:26.225Z,16.18
2022-08-11T00:38:55.871Z,16.16
2022-08-11T00:41:34.925Z,16.17
2022-08-11T00:44:28.859Z,16.17
2022-08-11T00:52:13.719Z,15.96
2022-08-11T00:55:10.794Z,15.90
2022-08-11T00:58:07.063Z,15.87
2022-08-11T01:00:58.263Z,15.83
2022-08-11T01:03:47.196Z,15.76
2022-08-11T01:14:40.083Z,15.60
2022-08-11T01:17:58.542Z,15.57
2022-08-11T01:20:58.678Z,15.49
2022-08-11T01:24:04.555Z,15.44
2022-08-11T01:27:19.305Z,15.37
2022-08-11T01:38:43.180Z,15.37
2022-08-11T01:41:47.144Z,15.31
2022-08-11T01:44:40.123Z,15.32
2022-08-11T01:47:52.382Z,15.28
2022-08-11T01:50:38.095Z,15.26
2022-08-11T01:53:16.160Z,15.23
2022-08-11T02:00:55.221Z,15.25
2022-08-11T02:03:37.038Z,15.19
2022-08-11T02:06:29.598Z,15.17
2022-08-11T02:09:08.986Z,15.16
2022-08-11T02:11:39.122Z,15.15
2022-08-11T02:14:20.245Z,15.16
2022-08-11T02:20:12.716Z,15.17
2022-08-11T02:23:09.999Z,15.09
2022-08-11T02:25:45.759Z,15.00
2022-08-11T02:28:23.441Z,14.95
2022-08-11T02:32:08.354Z,14.88
2022-08-11T02:34:18.312Z,14.82
2022-08-11T02:42:34.860Z,14.85
2022-08-11T02:45:16.861Z,14.74
2022-08-11T02:48:09.026Z,14.66
2022-08-11T02:50:42.544Z,14.66
2022-08-11T02:53:14.909Z,14.69
2022-08-11T02:55:57.612Z,14.66
2022-08-11T03:03:37.806Z,14.70
2022-08-11T03:06:12.721Z,14.75
2022-08-11T03:08:52.159Z,14.75
2022-08-11T03:11:57.390Z,14.79
2022-08-11T03:14:49.273Z,14.81
2022-08-11T03:17:30.805Z,14.89
2022-08-11T03:25:02.907Z,14.96
2022-08-11T03:27:41.648Z,14.96
2022-08-11T03:30:16.067Z,14.96
2022-08-11T03:33:16.008Z,14.98
2022-08-11T03:35:54.707Z,14.95
2022-08-11T03:38:30.475Z,14.92
2022-08-11T03:47:09.219Z,14.95
2022-08-11T03:49:46.221Z,15.01
2022-08-11T03:52:21.770Z,15.04
2022-08-11T03:55:01.414Z,15.15
2022-08-11T03:58:02.790Z,15.26
2022-08-11T04:00:54.652Z,15.21
2022-08-11T04:08:08.689Z,15.48
2022-08-11T04:11:24.688Z,15.65
2022-08-11T04:14:50.264Z,15.82
2022-08-11T04:17:51.037Z,16.02
2022-08-11T04:20:53.353Z,16.16
2022-08-11T04:28:50.309Z,16.42
2022-08-11T04:31:44.315Z,16.39
2022-08-11T04:35:06.685Z,16.47
2022-08-11T04:37:53.357Z,16.51
2022-08-11T04:40:50.833Z,16.45
2022-08-11T04:44:02.781Z,16.49
2022-08-11T04:52:20.648Z,17.00
2022-08-11T04:55:24.766Z,17.02
2022-08-11T04:58:34.959Z,17.24
2022-08-11T05:01:41.055Z,17.32
2022-08-11T05:04:51.288Z,17.28
2022-08-11T05:12:35.677Z,17.50
2022-08-11T05:15:22.718Z,17.60
2022-08-11T05:18:16.491Z,17.82
2022-08-11T05:21:09.238Z,17.78
2022-08-11T05:23:59.720Z,17.87
2022-08-11T05:26:49.651Z,17.99
2022-08-11T05:34:54.325Z,17.81
2022-08-11T05:37:32.391Z,17.87
2022-08-11T05:40:24.589Z,17.83
2022-08-11T05:43:15.599Z,17.83
2022-08-11T05:46:04.562Z,17.89
2022-08-11T05:48:53.803Z,17.92
2022-08-11T05:54:35.027Z,18.38
2022-08-11T05:57:05.058Z,18.40
2022-08-11T05:59:33.945Z,18.50
2022-08-11T06:02:04.123Z,18.56
2022-08-11T06:04:32.621Z,18.64
2022-08-11T06:07:02.444Z,18.66
2022-08-11T06:12:21.800Z,18.89
2022-08-11T06:14:53.967Z,18.83
2022-08-11T06:17:25.198Z,18.90
2022-08-11T06:20:04.202Z,18.88
2022-08-11T06:22:35.780Z,19.01
2022-08-11T06:25:05.647Z,19.05
2022-08-11T06:27:37.956Z,19.21
2022-08-11T06:32:57.200Z,19.64
2022-08-11T06:35:37.946Z,19.52
2022-08-11T06:38:10.552Z,19.42
2022-08-11T06:41:08.500Z,19.49
2022-08-11T06:43:55.240Z,19.41
2022-08-11T06:46:29.316Z,19.57
2022-08-11T06:51:56.781Z,19.57
2022-08-11T06:54:32.733Z,19.58
2022-08-11T06:57:35.451Z,19.47
2022-08-11T07:00:24.210Z,19.50
2022-08-11T07:02:55.789Z,19.78
2022-08-11T07:05:28.349Z,20.10
2022-08-11T07:15:00.279Z,20.82
2022-08-11T07:18:26.958Z,21.12
2022-08-11T07:21:43.100Z,21.22
2022-08-11T07:25:01.503Z,20.97
2022-08-11T07:27:55.612Z,21.09
2022-08-11T07:30:26.415Z,21.19
2022-08-11T07:38:03.487Z,21.44
2022-08-11T07:40:34.504Z,21.53
2022-08-11T07:43:03.732Z,21.79
2022-08-11T07:45:50.309Z,22.23
2022-08-11T07:48:38.074Z,22.55
2022-08-11T07:51:24.316Z,22.95
2022-08-11T07:53:58.317Z,23.02
2022-08-11T08:00:04.062Z,23.20
2022-08-11T08:02:43.417Z,23.64
2022-08-11T08:05:29.235Z,23.75
2022-08-11T08:08:14.895Z,23.76
2022-08-11T08:11:03.336Z,23.83
2022-08-11T08:13:51.918Z,23.99
2022-08-11T08:21:36.037Z,24.30
2022-08-11T08:24:04.358Z,24.46
2022-08-11T08:26:51.989Z,24.44
2022-08-11T08:29:38.898Z,24.51
2022-08-11T08:32:08.211Z,24.46
2022-08-11T08:34:37.104Z,24.59
2022-08-11T08:37:15.846Z,24.71
2022-08-11T08:45:05.419Z,24.74
2022-08-11T08:47:42.399Z,24.72
2022-08-11T08:50:16.948Z,24.95
2022-08-11T08:52:50.868Z,25.04
2022-08-11T08:55:20.070Z,24.91
2022-08-11T08:57:50.900Z,25.22
2022-08-11T09:00:23.637Z,25.10
2022-08-11T09:05:30.122Z,25.50
2022-08-11T09:07:58.212Z,25.50
2022-08-11T09:10:26.705Z,25.30
2022-08-11T09:12:55.060Z,25.11
2022-08-11T09:15:25.703Z,25.14
2022-08-11T09:18:03.222Z,25.25
2022-08-11T09:20:35.019Z,25.43
2022-08-11T09:28:13.187Z,25.95
2022-08-11T09:30:42.639Z,26.46
2022-08-11T09:33:12.490Z,26.45
2022-08-11T09:35:43.075Z,26.53
2022-08-11T09:38:31.254Z,26.65
2022-08-11T09:41:00.158Z,26.51
2022-08-11T09:46:41.098Z,26.64
2022-08-11T09:49:09.275Z,26.97
2022-08-11T09:51:37.438Z,27.29
2022-08-11T09:54:09.053Z,27.16
2022-08-11T09:57:09.337Z,27.37
2022-08-11T09:59:37.419Z,27.41
2022-08-11T10:05:44.645Z,27.81
2022-08-11T10:08:14.163Z,27.79
2022-08-11T10:10:42.150Z,27.97
2022-08-11T10:14:04.902Z,28.17
2022-08-11T10:16:15.426Z,28.01
2022-08-11T10:18:51.882Z,27.95
2022-08-11T10:25:40.677Z,28.01
2022-08-11T10:28:28.200Z,28.10
2022-08-11T10:31:17.467Z,28.20
2022-08-11T10:34:01.739Z,28.23
2022-08-11T10:36:32.157Z,27.74
2022-08-11T10:39:01.599Z,28.08
2022-08-11T10:47:11.368Z,28.52
2022-08-11T10:49:40.132Z,28.61
2022-08-11T10:52:25.710Z,28.88
2022-08-11T10:55:11.528Z,28.82
2022-08-11T10:58:04.620Z,28.84
2022-08-11T11:00:34.621Z,28.96
2022-08-11T11:08:31.973Z,29.27
2022-08-11T11:11:01.496Z,29.43
2022-08-11T11:13:55.345Z,29.54
2022-08-11T11:16:42.402Z,29.60
2022-08-11T11:19:12.709Z,29.82
2022-08-11T11:21:42.325Z,29.94
2022-08-11T11:30:01.343Z,30.03
2022-08-11T11:32:42.810Z,30.17
2022-08-11T11:35:26.117Z,30.27
2022-08-11T11:38:03.765Z,30.30
2022-08-11T11:40:33.715Z,30.39
2022-08-11T11:43:01.895Z,29.99
2022-08-11T11:50:37.017Z,30.72
2022-08-11T11:53:06.069Z,30.79
2022-08-11T11:55:35.412Z,30.71
2022-08-11T11:58:23.413Z,31.31
2022-08-11T12:01:11.762Z,31.60
2022-08-11T12:03:40.549Z,32.15
2022-08-11T12:09:05.979Z,32.59
2022-08-11T12:11:52.143Z,32.30
2022-08-11T12:14:21.302Z,32.99
2022-08-11T12:16:49.622Z,33.39
2022-08-11T12:19:20.949Z,33.26
2022-08-11T12:22:07.195Z,33.59
2022-08-11T12:27:25.335Z,34.13
2022-08-11T12:29:57.145Z,34.40
2022-08-11T12:32:27.795Z,34.36
2022-08-11T12:34:56.884Z,34.46
2022-08-11T12:37:30.421Z,34.97
2022-08-11T12:40:49.502Z,35.10
2022-08-11T12:49:00.577Z,35.03
2022-08-11T12:52:11.272Z,35.66
2022-08-11T12:54:46.251Z,35.79
2022-08-11T12:57:37.218Z,36.10
2022-08-11T13:00:24.898Z,36.07
2022-08-11T13:03:12.193Z,36.27
2022-08-11T13:11:08.862Z,37.02
2022-08-11T13:13:54.907Z,36.56
2022-08-11T13:16:28.106Z,36.18
2022-08-11T13:18:57.619Z,35.66
2022-08-11T13:21:26.900Z,36.24
2022-08-11T13:23:59.520Z,35.94
2022-08-11T13:29:28.909Z,36.47
2022-08-11T13:31:59.205Z,36.46
2022-08-11T13:34:30.526Z,36.50
2022-08-11T13:37:00.190Z,36.81
2022-08-11T13:39:30.379Z,36.97
2022-08-11T13:42:00.464Z,37.28
2022-08-11T13:44:31.773Z,37.41
2022-08-11T13:51:59.325Z,36.09
2022-08-11T13:54:30.158Z,36.27
2022-08-11T13:57:01.967Z,36.17
2022-08-11T13:59:30.786Z,36.60
2022-08-11T14:02:28.638Z,36.81
2022-08-11T14:04:55.409Z,36.00
2022-08-11T14:07:28.757Z,35.34
2022-08-11T14:13:01.629Z,33.95
2022-08-11T14:15:33.141Z,33.35
2022-08-11T14:18:05.448Z,32.79
2022-08-11T14:20:50.200Z,32.51
2022-08-11T14:23:19.982Z,32.60
2022-08-11T14:26:06.602Z,31.89
2022-08-11T14:31:47.296Z,30.41
2022-08-11T14:34:18.358Z,30.19
2022-08-11T14:36:50.639Z,29.80
2022-08-11T14:39:22.642Z,29.54
2022-08-11T14:42:13.367Z,29.66
2022-08-11T14:45:02.176Z,29.59
2022-08-11T14:50:15.687Z,29.20
2022-08-11T14:52:50.633Z,29.24
2022-08-11T14:55:38.124Z,29.11
2022-08-11T14:58:08.799Z,28.98
2022-08-11T15:00:37.434Z,28.82
2022-08-11T15:03:12.419Z,28.49
2022-08-11T15:12:32.662Z,27.97
2022-08-11T15:15:19.985Z,27.77
2022-08-11T15:17:50.364Z,27.60
2022-08-11T15:20:38.137Z,27.50
2022-08-11T15:23:24.057Z,27.26
2022-08-11T15:25:56.790Z,27.26
2022-08-11T15:34:09.349Z,26.97
2022-08-11T15:36:56.050Z,26.70
2022-08-11T15:39:28.995Z,26.55
2022-08-11T15:42:17.712Z,26.32
2022-08-11T15:45:10.188Z,26.27
2022-08-11T15:47:41.644Z,26.29
2022-08-11T15:53:12.357Z,26.15
2022-08-11T15:55:41.215Z,26.11
2022-08-11T15:58:30.342Z,26.09
2022-08-11T16:01:18.153Z,26.08
2022-08-11T16:04:09.395Z,26.00
2022-08-11T16:06:49.328Z,26.00
2022-08-11T16:12:09.961Z,26.04
2022-08-11T16:15:00.327Z,25.98
2022-08-11T16:17:34.559Z,25.81
2022-08-11T16:20:03.937Z,25.77
2022-08-11T16:22:39.483Z,25.65
2022-08-11T16:27:03.157Z,25.67
2022-08-11T16:33:48.773Z,25.50
2022-08-11T16:36:25.833Z,25.44
2022-08-11T16:38:54.955Z,25.37
2022-08-11T16:41:43.833Z,25.29
2022-08-11T16:44:32.764Z,25.24
2022-08-11T16:47:08.189Z,25.19
2022-08-11T16:54:40.791Z,24.96
2022-08-11T16:57:34.090Z,24.89
2022-08-11T17:00:05.697Z,24.99
2022-08-11T17:02:55.235Z,24.90
2022-08-11T17:05:54.399Z,24.78
2022-08-11T17:08:48.444Z,24.64
2022-08-11T17:14:15.038Z,24.42
2022-08-11T17:16:45.843Z,24.43
2022-08-11T17:19:16.464Z,24.45
2022-08-11T17:22:01.590Z,24.24
2022-08-11T17:24:31.644Z,24.18
2022-08-11T17:27:00.896Z,24.20
2022-08-11T17:33:26.795Z,23.93
2022-08-11T17:35:54.783Z,23.92
2022-08-11T17:38:24.764Z,23.87
2022-08-11T17:41:18.530Z,23.92
2022-08-11T17:44:11.754Z,23.87
2022-08-11T17:47:05.199Z,24.00
2022-08-11T17:54:57.448Z,23.99
2022-08-11T17:57:47.516Z,24.10
2022-08-11T18:00:17.034Z,24.00
2022-08-11T18:03:04.305Z,24.05
2022-08-11T18:05:35.025Z,24.04
2022-08-11T18:08:25.027Z,24.11
2022-08-11T18:11:24.366Z,24.11
2022-08-11T18:17:13.220Z,24.05
2022-08-11T18:19:59.217Z,24.08
2022-08-11T18:22:48.016Z,24.00
2022-08-11T18:25:40.830Z,24.04
2022-08-11T18:28:34.671Z,24.03
2022-08-11T18:31:23.550Z,23.99
2022-08-11T18:38:28.827Z,23.80
2022-08-11T18:41:21.199Z,23.71
2022-08-11T18:44:09.466Z,23.75
2022-08-11T18:47:00.741Z,23.72
2022-08-11T18:50:02.650Z,23.73
2022-08-11T18:55:52.997Z,23.69
2022-08-11T18:58:44.791Z,23.67
2022-08-11T19:01:32.649Z,23.58
2022-08-11T19:04:20.194Z,23.66
2022-08-11T19:07:08.785Z,23.69
2022-08-11T19:09:58.758Z,23.72
2022-08-11T19:16:56.176Z,23.46
2022-08-11T19:19:47.300Z,23.38
2022-08-11T19:22:36.141Z,23.33
2022-08-11T19:25:25.802Z,23.19
2022-08-11T19:28:13.502Z,23.16
2022-08-11T19:30:59.377Z,22.96
2022-08-11T19:39:03.269Z,22.89
2022-08-11T19:41:56.926Z,22.78
2022-08-11T19:44:44.982Z,22.75
2022-08-11T19:47:32.263Z,22.68
2022-08-11T19:50:24.113Z,22.64
2022-08-11T19:53:17.201Z,22.64
2022-08-11T20:01:14.287Z,22.52
2022-08-11T20:03:59.859Z,22.51
2022-08-11T20:06:46.743Z,22.48
2022-08-11T20:10:00.920Z,21.94
2022-08-11T20:12:40.492Z,21.58
2022-08-11T20:15:28.590Z,21.20
2022-08-11T20:23:35.293Z,20.66
2022-08-11T20:26:30.841Z,20.91
2022-08-11T20:29:18.695Z,20.97
2022-08-11T20:32:06.646Z,20.96
2022-08-11T20:34:57.490Z,21.08
2022-08-11T20:37:47.649Z,21.05
2022-08-11T20:46:00.009Z,21.03
2022-08-11T20:48:47.066Z,20.85
2022-08-11T20:51:33.891Z,20.81
2022-08-11T20:54:41.942Z,20.73
2022-08-11T20:57:45.744Z,20.50
2022-08-11T21:00:38.896Z,20.28
2022-08-11T21:08:53.645Z,19.62
2022-08-11T21:11:40.944Z,19.48
2022-08-11T21:14:32.015Z,19.35
2022-08-11T21:17:26.850Z,19.37
2022-08-11T21:20:22.345Z,19.64
2022-08-11T21:23:19.931Z,19.73
2022-08-11T21:31:30.845Z,20.01
2022-08-11T21:34:17.089Z,20.04
2022-08-11T21:37:03.730Z,20.12
2022-08-11T21:39:51.594Z,20.00
2022-08-11T21:42:39.026Z,20.04
2022-08-11T21:45:26.811Z,19.82
2022-08-11T21:54:07.425Z,19.04
2022-08-11T21:56:54.585Z,19.05
2022-08-11T21:59:49.724Z,19.10
2022-08-11T22:02:36.828Z,19.40
2022-08-11T22:05:23.088Z,19.52
2022-08-11T22:08:09.395Z,19.52
2022-08-11T22:16:18.215Z,19.26
2022-08-11T22:19:04.515Z,19.20
2022-08-11T22:22:02.808Z,18.96
2022-08-11T22:24:52.768Z,18.78
2022-08-11T22:27:39.595Z,18.61
2022-08-11T22:30:28.250Z,18.52
2022-08-11T22:36:01.281Z,18.34
2022-08-11T22:38:47.522Z,18.33
2022-08-11T22:41:33.790Z,18.17
2022-08-11T22:44:19.359Z,18.18
2022-08-11T22:47:05.163Z,18.11
2022-08-11T22:49:58.140Z,18.12
2022-08-11T22:58:06.234Z,17.94
2022-08-11T23:00:51.777Z,17.82
2022-08-11T23:03:38.678Z,17.78
2022-08-11T23:06:25.227Z,17.74
2022-08-11T23:09:11.291Z,17.69
2022-08-11T23:12:07.193Z,17.73
2022-08-11T23:20:35.031Z,17.51
2022-08-11T23:23:25.105Z,17.41
2022-08-11T23:26:12.827Z,17.35
2022-08-11T23:28:59.371Z,17.24
2022-08-11T23:31:53.090Z,17.14
2022-08-11T23:35:04.413Z,17.05
2022-08-11T23:40:49.805Z,16.85
2022-08-11T23:43:38.778Z,16.82
2022-08-11T23:46:24.447Z,16.84
2022-08-11T23:49:13.664Z,16.87
2022-08-11T23:52:00.578Z,16.90
2022-08-11T23:54:47.094Z,17.12
